sensor_id;sensor_type;location;lat;lon;timestamp;temperature;humidity
39401;DHT22;54391;50.000;7.360;2023-04-01T00:01:14;7.30;68.40
39401;DHT22;54391;50.000;7.360;2023-04-01T00:03:42;7.30;70.30
39401;DHT22;54391;50.000;7.360;2023-04-01T00:06:12;7.20;70.80
39401;DHT22;54391;50.000;7.360;2023-04-01T00:08:40;7.20;71.50
39401;DHT22;54391;50.000;7.360;2023-04-01T00:11:08;7.20;72.70
39401;DHT22;54391;50.000;7.360;2023-04-01T00:13:36;7.10;73.60
39401;DHT22;54391;50.000;7.360;2023-04-01T00:16:04;7.20;75.60
39401;DHT22;54391;50.000;7.360;2023-04-01T00:20:59;7.10;76.10
39401;DHT22;54391;50.000;7.360;2023-04-01T00:25:55;7.10;75.50
39401;DHT22;54391;50.000;7.360;2023-04-01T00:28:23;7.10;78.00
39401;DHT22;54391;50.000;7.360;2023-04-01T00:30:51;7.00;78.90
39401;DHT22;54391;50.000;7.360;2023-04-01T00:33:18;7.00;79.00
39401;DHT22;54391;50.000;7.360;2023-04-01T00:38:13;7.00;77.20
39401;DHT22;54391;50.000;7.360;2023-04-01T00:40:44;7.00;76.40
39401;DHT22;54391;50.000;7.360;2023-04-01T00:43:13;7.00;78.90
39401;DHT22;54391;50.000;7.360;2023-04-01T00:45:43;6.90;80.00
39401;DHT22;54391;50.000;7.360;2023-04-01T00:48:13;7.00;80.10
39401;DHT22;54391;50.000;7.360;2023-04-01T00:50:44;7.00;79.80
39401;DHT22;54391;50.000;7.360;2023-04-01T00:53:12;7.00;78.20
39401;DHT22;54391;50.000;7.360;2023-04-01T00:55:43;7.00;76.90
39401;DHT22;54391;50.000;7.360;2023-04-01T00:58:15;7.00;75.80
39401;DHT22;54391;50.000;7.360;2023-04-01T01:00:46;7.00;73.50
39401;DHT22;54391;50.000;7.360;2023-04-01T01:03:15;7.10;72.70
39401;DHT22;54391;50.000;7.360;2023-04-01T01:06:11;7.00;71.90
39401;DHT22;54391;50.000;7.360;2023-04-01T01:09:02;7.10;69.00
39401;DHT22;54391;50.000;7.360;2023-04-01T01:11:35;7.20;70.30
39401;DHT22;54391;50.000;7.360;2023-04-01T01:14:09;7.20;66.10
39401;DHT22;54391;50.000;7.360;2023-04-01T01:16:44;7.10;66.40
39401;DHT22;54391;50.000;7.360;2023-04-01T01:19:33;7.10;65.90
39401;DHT22;54391;50.000;7.360;2023-04-01T01:22:23;7.20;66.80
39401;DHT22;54391;50.000;7.360;2023-04-01T01:25:10;7.20;65.50
39401;DHT22;54391;50.000;7.360;2023-04-01T01:27:41;7.10;67.20
39401;DHT22;54391;50.000;7.360;2023-04-01T01:33:35;7.10;65.30
39401;DHT22;54391;50.000;7.360;2023-04-01T01:36:11;7.10;66.80
39401;DHT22;54391;50.000;7.360;2023-04-01T01:38:40;7.10;67.60
39401;DHT22;54391;50.000;7.360;2023-04-01T01:41:09;7.10;71.30
39401;DHT22;54391;50.000;7.360;2023-04-01T01:43:40;7.00;68.00
39401;DHT22;54391;50.000;7.360;2023-04-01T01:46:13;7.00;67.80
39401;DHT22;54391;50.000;7.360;2023-04-01T01:48:43;7.00;69.70
39401;DHT22;54391;50.000;7.360;2023-04-01T01:51:12;7.00;70.40
39401;DHT22;54391;50.000;7.360;2023-04-01T01:53:40;6.90;71.50
39401;DHT22;54391;50.000;7.360;2023-04-01T01:56:09;7.00;69.50
39401;DHT22;54391;50.000;7.360;2023-04-01T01:58:43;7.00;70.30
39401;DHT22;54391;50.000;7.360;2023-04-01T02:01:16;7.00;71.00
39401;DHT22;54391;50.000;7.360;2023-04-01T02:03:45;7.00;70.70
39401;DHT22;54391;50.000;7.360;2023-04-01T02:06:16;7.00;70.30
39401;DHT22;54391;50.000;7.360;2023-04-01T02:08:46;7.00;69.40
39401;DHT22;54391;50.000;7.360;2023-04-01T02:11:16;7.00;69.90
39401;DHT22;54391;50.000;7.360;2023-04-01T02:13:51;7.00;71.40
39401;DHT22;54391;50.000;7.360;2023-04-01T02:16:22;7.00;68.10
39401;DHT22;54391;50.000;7.360;2023-04-01T02:18:52;7.00;69.60
39401;DHT22;54391;50.000;7.360;2023-04-01T02:21:24;7.00;71.00
39401;DHT22;54391;50.000;7.360;2023-04-01T02:23:54;6.90;70.20
39401;DHT22;54391;50.000;7.360;2023-04-01T02:26:22;6.90;68.70
39401;DHT22;54391;50.000;7.360;2023-04-01T02:28:52;6.90;74.70
39401;DHT22;54391;50.000;7.360;2023-04-01T02:31:21;7.10;75.60
39401;DHT22;54391;50.000;7.360;2023-04-01T02:33:51;6.80;75.30
39401;DHT22;54391;50.000;7.360;2023-04-01T02:36:18;6.80;74.00
39401;DHT22;54391;50.000;7.360;2023-04-01T02:38:48;6.80;74.10
39401;DHT22;54391;50.000;7.360;2023-04-01T02:41:16;6.90;76.10
39401;DHT22;54391;50.000;7.360;2023-04-01T02:43:44;6.80;78.00
39401;DHT22;54391;50.000;7.360;2023-04-01T02:46:11;6.80;75.40
39401;DHT22;54391;50.000;7.360;2023-04-01T02:48:38;6.80;74.90
39401;DHT22;54391;50.000;7.360;2023-04-01T02:51:06;6.80;78.70
39401;DHT22;54391;50.000;7.360;2023-04-01T02:53:33;6.80;77.50
39401;DHT22;54391;50.000;7.360;2023-04-01T02:56:04;6.80;79.00
39401;DHT22;54391;50.000;7.360;2023-04-01T02:58:31;6.80;76.00
39401;DHT22;54391;50.000;7.360;2023-04-01T03:00:59;6.90;75.60
39401;DHT22;54391;50.000;7.360;2023-04-01T03:03:26;6.90;77.10
39401;DHT22;54391;50.000;7.360;2023-04-01T03:08:22;6.80;75.60
39401;DHT22;54391;50.000;7.360;2023-04-01T03:13:18;6.80;72.60
39401;DHT22;54391;50.000;7.360;2023-04-01T03:18:13;6.80;76.40
39401;DHT22;54391;50.000;7.360;2023-04-01T03:23:09;6.80;70.80
39401;DHT22;54391;50.000;7.360;2023-04-01T03:25:37;6.80;74.40
39401;DHT22;54391;50.000;7.360;2023-04-01T03:28:04;6.90;73.60
39401;DHT22;54391;50.000;7.360;2023-04-01T03:30:33;6.80;74.50
39401;DHT22;54391;50.000;7.360;2023-04-01T03:33:00;6.80;71.80
39401;DHT22;54391;50.000;7.360;2023-04-01T03:35:30;6.80;71.40
39401;DHT22;54391;50.000;7.360;2023-04-01T03:40:26;6.80;68.80
39401;DHT22;54391;50.000;7.360;2023-04-01T03:42:53;6.80;73.00
39401;DHT22;54391;50.000;7.360;2023-04-01T03:45:22;6.80;71.50
39401;DHT22;54391;50.000;7.360;2023-04-01T03:47:50;6.80;69.20
39401;DHT22;54391;50.000;7.360;2023-04-01T03:50:18;6.80;69.40
39401;DHT22;54391;50.000;7.360;2023-04-01T03:52:45;6.80;70.40
39401;DHT22;54391;50.000;7.360;2023-04-01T03:55:13;6.80;69.60
39401;DHT22;54391;50.000;7.360;2023-04-01T03:57:40;6.70;73.60
39401;DHT22;54391;50.000;7.360;2023-04-01T04:02:46;6.80;72.70
39401;DHT22;54391;50.000;7.360;2023-04-01T04:05:20;6.70;74.60
39401;DHT22;54391;50.000;7.360;2023-04-01T04:07:48;6.70;75.50
39401;DHT22;54391;50.000;7.360;2023-04-01T04:10:16;6.70;75.80
39401;DHT22;54391;50.000;7.360;2023-04-01T04:15:11;6.70;75.10
39401;DHT22;54391;50.000;7.360;2023-04-01T04:17:38;6.70;76.80
39401;DHT22;54391;50.000;7.360;2023-04-01T04:20:06;6.70;77.70
39401;DHT22;54391;50.000;7.360;2023-04-01T04:22:36;6.70;75.20
39401;DHT22;54391;50.000;7.360;2023-04-01T04:25:06;6.70;77.00
39401;DHT22;54391;50.000;7.360;2023-04-01T04:27:35;6.70;73.60
39401;DHT22;54391;50.000;7.360;2023-04-01T04:30:08;6.70;73.60
39401;DHT22;54391;50.000;7.360;2023-04-01T04:32:36;6.80;70.90
39401;DHT22;54391;50.000;7.360;2023-04-01T04:35:05;6.80;71.60
39401;DHT22;54391;50.000;7.360;2023-04-01T04:40:02;6.70;73.60
39401;DHT22;54391;50.000;7.360;2023-04-01T04:42:30;6.70;75.40
39401;DHT22;54391;50.000;7.360;2023-04-01T04:45:04;6.70;78.00
39401;DHT22;54391;50.000;7.360;2023-04-01T04:47:31;6.70;77.90
39401;DHT22;54391;50.000;7.360;2023-04-01T04:57:23;6.70;81.80
39401;DHT22;54391;50.000;7.360;2023-04-01T05:02:42;6.60;79.70
39401;DHT22;54391;50.000;7.360;2023-04-01T05:05:09;6.70;80.70
39401;DHT22;54391;50.000;7.360;2023-04-01T05:10:05;6.70;77.60
39401;DHT22;54391;50.000;7.360;2023-04-01T05:12:34;6.70;79.50
39401;DHT22;54391;50.000;7.360;2023-04-01T05:15:07;6.70;80.80
39401;DHT22;54391;50.000;7.360;2023-04-01T05:20:04;6.70;80.40
39401;DHT22;54391;50.000;7.360;2023-04-01T05:22:32;6.70;79.50
39401;DHT22;54391;50.000;7.360;2023-04-01T05:24:59;6.70;81.80
39401;DHT22;54391;50.000;7.360;2023-04-01T05:27:28;6.70;82.50
39401;DHT22;54391;50.000;7.360;2023-04-01T05:29:58;6.70;84.90
39401;DHT22;54391;50.000;7.360;2023-04-01T05:32:44;6.80;85.30
39401;DHT22;54391;50.000;7.360;2023-04-01T05:35:11;6.70;86.70
39401;DHT22;54391;50.000;7.360;2023-04-01T05:40:07;6.70;87.70
39401;DHT22;54391;50.000;7.360;2023-04-01T05:42:34;6.70;88.90
39401;DHT22;54391;50.000;7.360;2023-04-01T05:45:04;6.70;88.50
39401;DHT22;54391;50.000;7.360;2023-04-01T05:48:03;6.70;88.10
39401;DHT22;54391;50.000;7.360;2023-04-01T05:50:36;6.80;89.60
39401;DHT22;54391;50.000;7.360;2023-04-01T05:55:32;6.80;88.20
39401;DHT22;54391;50.000;7.360;2023-04-01T05:58:01;6.80;90.80
39401;DHT22;54391;50.000;7.360;2023-04-01T06:00:30;6.80;90.60
39401;DHT22;54391;50.000;7.360;2023-04-01T06:02:59;6.80;93.10
39401;DHT22;54391;50.000;7.360;2023-04-01T06:05:37;6.80;92.10
39401;DHT22;54391;50.000;7.360;2023-04-01T06:08:10;6.80;93.00
39401;DHT22;54391;50.000;7.360;2023-04-01T06:10:47;6.80;93.60
39401;DHT22;54391;50.000;7.360;2023-04-01T06:13:26;6.80;92.80
39401;DHT22;54391;50.000;7.360;2023-04-01T06:16:04;6.90;92.90
39401;DHT22;54391;50.000;7.360;2023-04-01T06:18:49;6.80;93.20
39401;DHT22;54391;50.000;7.360;2023-04-01T06:24:53;6.90;94.00
39401;DHT22;54391;50.000;7.360;2023-04-01T06:27:36;6.90;94.50
39401;DHT22;54391;50.000;7.360;2023-04-01T06:30:38;6.90;95.50
39401;DHT22;54391;50.000;7.360;2023-04-01T06:33:20;6.90;95.40
39401;DHT22;54391;50.000;7.360;2023-04-01T06:36:04;6.90;94.30
39401;DHT22;54391;50.000;7.360;2023-04-01T06:39:05;6.90;95.10
39401;DHT22;54391;50.000;7.360;2023-04-01T06:42:00;6.90;94.70
39401;DHT22;54391;50.000;7.360;2023-04-01T06:44:38;7.00;94.90
39401;DHT22;54391;50.000;7.360;2023-04-01T06:47:36;7.00;93.90
39401;DHT22;54391;50.000;7.360;2023-04-01T06:50:37;7.10;92.90
39401;DHT22;54391;50.000;7.360;2023-04-01T06:53:33;7.20;94.80
39401;DHT22;54391;50.000;7.360;2023-04-01T06:56:22;7.20;95.30
39401;DHT22;54391;50.000;7.360;2023-04-01T06:59:07;7.20;94.20
39401;DHT22;54391;50.000;7.360;2023-04-01T07:01:39;7.30;95.60
39401;DHT22;54391;50.000;7.360;2023-04-01T07:04:13;7.30;94.80
39401;DHT22;54391;50.000;7.360;2023-04-01T07:06:46;7.30;93.20
39401;DHT22;54391;50.000;7.360;2023-04-01T07:09:19;7.30;94.00
39401;DHT22;54391;50.000;7.360;2023-04-01T07:12:34;7.30;94.30
39401;DHT22;54391;50.000;7.360;2023-04-01T07:15:26;7.30;94.00
39401;DHT22;54391;50.000;7.360;2023-04-01T07:17:58;7.40;93.30
39401;DHT22;54391;50.000;7.360;2023-04-01T07:20:31;7.40;91.40
39401;DHT22;54391;50.000;7.360;2023-04-01T07:23:03;7.40;89.30
39401;DHT22;54391;50.000;7.360;2023-04-01T07:25:44;7.40;89.20
39401;DHT22;54391;50.000;7.360;2023-04-01T07:28:52;7.50;90.30
39401;DHT22;54391;50.000;7.360;2023-04-01T07:32:17;7.40;90.60
39401;DHT22;54391;50.000;7.360;2023-04-01T07:35:09;7.40;88.10
39401;DHT22;54391;50.000;7.360;2023-04-01T07:37:46;7.50;90.50
39401;DHT22;54391;50.000;7.360;2023-04-01T07:40:28;7.50;89.30
39401;DHT22;54391;50.000;7.360;2023-04-01T07:43:11;7.40;89.50
39401;DHT22;54391;50.000;7.360;2023-04-01T07:45:53;7.40;89.40
39401;DHT22;54391;50.000;7.360;2023-04-01T07:48:28;7.40;90.60
39401;DHT22;54391;50.000;7.360;2023-04-01T07:51:02;7.40;88.10
39401;DHT22;54391;50.000;7.360;2023-04-01T07:53:36;7.50;90.90
39401;DHT22;54391;50.000;7.360;2023-04-01T07:56:10;7.50;91.40
39401;DHT22;54391;50.000;7.360;2023-04-01T07:58:50;7.50;90.20
39401;DHT22;54391;50.000;7.360;2023-04-01T08:01:42;7.50;93.10
39401;DHT22;54391;50.000;7.360;2023-04-01T08:04:33;7.50;91.40
39401;DHT22;54391;50.000;7.360;2023-04-01T08:07:08;7.50;94.20
39401;DHT22;54391;50.000;7.360;2023-04-01T08:09:47;7.50;92.00
39401;DHT22;54391;50.000;7.360;2023-04-01T08:12:43;8.00;92.10
39401;DHT22;54391;50.000;7.360;2023-04-01T08:15:55;7.50;91.90
39401;DHT22;54391;50.000;7.360;2023-04-01T08:18:39;7.50;91.60
39401;DHT22;54391;50.000;7.360;2023-04-01T08:21:11;7.50;91.90
39401;DHT22;54391;50.000;7.360;2023-04-01T08:23:43;7.50;90.60
39401;DHT22;54391;50.000;7.360;2023-04-01T08:26:17;7.50;91.00
39401;DHT22;54391;50.000;7.360;2023-04-01T08:28:55;7.60;88.70
39401;DHT22;54391;50.000;7.360;2023-04-01T08:31:30;7.60;89.70
39401;DHT22;54391;50.000;7.360;2023-04-01T08:33:57;7.70;89.80
39401;DHT22;54391;50.000;7.360;2023-04-01T08:36:31;7.70;89.00
39401;DHT22;54391;50.000;7.360;2023-04-01T08:39:20;7.70;88.40
39401;DHT22;54391;50.000;7.360;2023-04-01T08:45:24;7.80;86.90
39401;DHT22;54391;50.000;7.360;2023-04-01T08:48:23;7.80;86.40
39401;DHT22;54391;50.000;7.360;2023-04-01T08:54:09;7.80;88.20
39401;DHT22;54391;50.000;7.360;2023-04-01T08:56:46;7.70;82.50
39401;DHT22;54391;50.000;7.360;2023-04-01T08:59:43;7.80;85.40
39401;DHT22;54391;50.000;7.360;2023-04-01T09:02:51;7.80;82.50
39401;DHT22;54391;50.000;7.360;2023-04-01T09:08:28;7.90;81.00
39401;DHT22;54391;50.000;7.360;2023-04-01T09:11:16;7.90;81.70
39401;DHT22;54391;50.000;7.360;2023-04-01T09:14:06;8.00;83.70
39401;DHT22;54391;50.000;7.360;2023-04-01T09:19:54;8.00;81.80
39401;DHT22;54391;50.000;7.360;2023-04-01T09:22:40;8.10;81.00
39401;DHT22;54391;50.000;7.360;2023-04-01T09:25:30;8.20;76.80
39401;DHT22;54391;50.000;7.360;2023-04-01T09:28:10;8.20;76.10
39401;DHT22;54391;50.000;7.360;2023-04-01T09:30:55;8.20;73.10
39401;DHT22;54391;50.000;7.360;2023-04-01T09:33:54;8.20;76.00
39401;DHT22;54391;50.000;7.360;2023-04-01T09:36:45;8.30;75.10
39401;DHT22;54391;50.000;7.360;2023-04-01T09:39:36;8.30;73.30
39401;DHT22;54391;50.000;7.360;2023-04-01T09:42:34;8.20;73.40
39401;DHT22;54391;50.000;7.360;2023-04-01T09:45:26;8.30;72.00
39401;DHT22;54391;50.000;7.360;2023-04-01T09:48:06;9.10;74.80
39401;DHT22;54391;50.000;7.360;2023-04-01T09:50:44;8.30;74.00
39401;DHT22;54391;50.000;7.360;2023-04-01T09:56:23;8.50;71.50
39401;DHT22;54391;50.000;7.360;2023-04-01T09:59:19;8.50;72.00
39401;DHT22;54391;50.000;7.360;2023-04-01T10:02:31;8.40;73.00
39401;DHT22;54391;50.000;7.360;2023-04-01T10:05:37;8.50;71.50
39401;DHT22;54391;50.000;7.360;2023-04-01T10:14:55;8.60;68.70
39401;DHT22;54391;50.000;7.360;2023-04-01T10:17:58;8.60;69.30
39401;DHT22;54391;50.000;7.360;2023-04-01T10:23:49;8.60;71.00
39401;DHT22;54391;50.000;7.360;2023-04-01T10:26:44;8.60;72.10
39401;DHT22;54391;50.000;7.360;2023-04-01T10:36:05;8.80;62.70
39401;DHT22;54391;50.000;7.360;2023-04-01T10:41:58;8.80;65.40
39401;DHT22;54391;50.000;7.360;2023-04-01T10:45:45;8.80;68.50
39401;DHT22;54391;50.000;7.360;2023-04-01T10:51:31;8.90;66.70
39401;DHT22;54391;50.000;7.360;2023-04-01T10:54:28;8.70;66.70
39401;DHT22;54391;50.000;7.360;2023-04-01T10:57:46;8.80;65.20
39401;DHT22;54391;50.000;7.360;2023-04-01T11:11:34;9.00;67.40
39401;DHT22;54391;50.000;7.360;2023-04-01T11:14:38;9.30;63.40
39401;DHT22;54391;50.000;7.360;2023-04-01T11:17:22;9.70;55.60
39401;DHT22;54391;50.000;7.360;2023-04-01T11:23:43;9.90;51.10
39401;DHT22;54391;50.000;7.360;2023-04-01T11:26:32;9.60;52.50
39401;DHT22;54391;50.000;7.360;2023-04-01T11:32:46;9.30;56.90
39401;DHT22;54391;50.000;7.360;2023-04-01T11:35:48;9.30;58.20
39401;DHT22;54391;50.000;7.360;2023-04-01T11:38:35;9.50;60.00
39401;DHT22;54391;50.000;7.360;2023-04-01T11:41:34;9.90;59.50
39401;DHT22;54391;50.000;7.360;2023-04-01T11:44:27;10.30;53.00
39401;DHT22;54391;50.000;7.360;2023-04-01T11:47:39;10.50;52.10
39401;DHT22;54391;50.000;7.360;2023-04-01T11:50:18;10.60;50.90
39401;DHT22;54391;50.000;7.360;2023-04-01T11:53:26;10.30;49.90
39401;DHT22;54391;50.000;7.360;2023-04-01T11:56:14;10.50;50.40
39401;DHT22;54391;50.000;7.360;2023-04-01T11:59:14;10.40;48.10
39401;DHT22;54391;50.000;7.360;2023-04-01T12:01:58;10.40;47.80
39401;DHT22;54391;50.000;7.360;2023-04-01T12:04:39;10.20;50.20
39401;DHT22;54391;50.000;7.360;2023-04-01T12:07:17;10.10;50.40
39401;DHT22;54391;50.000;7.360;2023-04-01T12:09:52;10.30;50.80
39401;DHT22;54391;50.000;7.360;2023-04-01T12:12:32;10.30;49.00
39401;DHT22;54391;50.000;7.360;2023-04-01T12:15:15;10.20;49.70
39401;DHT22;54391;50.000;7.360;2023-04-01T12:17:48;10.30;51.30
39401;DHT22;54391;50.000;7.360;2023-04-01T12:20:41;10.30;49.00
39401;DHT22;54391;50.000;7.360;2023-04-01T12:23:20;10.30;49.50
39401;DHT22;54391;50.000;7.360;2023-04-01T12:26:24;10.40;50.20
39401;DHT22;54391;50.000;7.360;2023-04-01T12:29:07;10.30;49.60
39401;DHT22;54391;50.000;7.360;2023-04-01T12:31:42;10.30;48.30
39401;DHT22;54391;50.000;7.360;2023-04-01T12:34:49;10.20;45.50
39401;DHT22;54391;50.000;7.360;2023-04-01T12:37:32;9.90;54.20
39401;DHT22;54391;50.000;7.360;2023-04-01T12:40:20;9.80;57.40
39401;DHT22;54391;50.000;7.360;2023-04-01T12:43:15;9.60;53.10
39401;DHT22;54391;50.000;7.360;2023-04-01T12:45:51;9.60;59.80
39401;DHT22;54391;50.000;7.360;2023-04-01T12:51:45;9.80;57.40
39401;DHT22;54391;50.000;7.360;2023-04-01T12:57:41;9.70;58.10
39401;DHT22;54391;50.000;7.360;2023-04-01T13:00:35;9.50;59.70
39401;DHT22;54391;50.000;7.360;2023-04-01T13:03:24;9.50;61.60
39401;DHT22;54391;50.000;7.360;2023-04-01T13:06:29;9.40;65.40
39401;DHT22;54391;50.000;7.360;2023-04-01T13:09:08;9.30;66.60
39401;DHT22;54391;50.000;7.360;2023-04-01T13:11:51;9.30;69.70
39401;DHT22;54391;50.000;7.360;2023-04-01T13:14:32;9.20;74.10
39401;DHT22;54391;50.000;7.360;2023-04-01T13:17:10;9.00;76.10
39401;DHT22;54391;50.000;7.360;2023-04-01T13:19:47;8.90;76.10
39401;DHT22;54391;50.000;7.360;2023-04-01T13:22:20;9.00;81.50
39401;DHT22;54391;50.000;7.360;2023-04-01T13:25:00;9.10;79.40
39401;DHT22;54391;50.000;7.360;2023-04-01T13:27:34;9.20;75.90
39401;DHT22;54391;50.000;7.360;2023-04-01T13:30:18;9.20;73.10
39401;DHT22;54391;50.000;7.360;2023-04-01T13:32:50;9.20;75.40
39401;DHT22;54391;50.000;7.360;2023-04-01T13:35:30;9.20;75.90
39401;DHT22;54391;50.000;7.360;2023-04-01T13:38:13;9.20;76.70
39401;DHT22;54391;50.000;7.360;2023-04-01T13:40:51;9.00;73.50
39401;DHT22;54391;50.000;7.360;2023-04-01T13:43:24;8.90;77.60
39401;DHT22;54391;50.000;7.360;2023-04-01T13:46:20;8.80;76.00
39401;DHT22;54391;50.000;7.360;2023-04-01T13:49:18;8.90;81.20
39401;DHT22;54391;50.000;7.360;2023-04-01T13:52:20;9.10;76.80
39401;DHT22;54391;50.000;7.360;2023-04-01T13:55:14;9.40;71.90
39401;DHT22;54391;50.000;7.360;2023-04-01T13:57:58;9.30;68.60
39401;DHT22;54391;50.000;7.360;2023-04-01T14:00:48;9.20;71.10
39401;DHT22;54391;50.000;7.360;2023-04-01T14:03:27;9.10;73.20
39401;DHT22;54391;50.000;7.360;2023-04-01T14:09:21;9.30;73.80
39401;DHT22;54391;50.000;7.360;2023-04-01T14:11:57;9.30;72.80
39401;DHT22;54391;50.000;7.360;2023-04-01T14:14:36;9.20;71.90
39401;DHT22;54391;50.000;7.360;2023-04-01T14:17:21;9.20;73.20
39401;DHT22;54391;50.000;7.360;2023-04-01T14:20:07;9.30;73.20
39401;DHT22;54391;50.000;7.360;2023-04-01T14:22:47;9.30;72.30
39401;DHT22;54391;50.000;7.360;2023-04-01T14:25:41;9.30;71.60
39401;DHT22;54391;50.000;7.360;2023-04-01T14:28:18;9.40;69.80
39401;DHT22;54391;50.000;7.360;2023-04-01T14:31:04;9.40;66.60
39401;DHT22;54391;50.000;7.360;2023-04-01T14:33:45;9.40;69.80
39401;DHT22;54391;50.000;7.360;2023-04-01T14:39:22;9.10;73.40
39401;DHT22;54391;50.000;7.360;2023-04-01T14:42:05;9.10;73.80
39401;DHT22;54391;50.000;7.360;2023-04-01T14:44:53;9.10;78.80
39401;DHT22;54391;50.000;7.360;2023-04-01T14:47:39;9.10;77.40
39401;DHT22;54391;50.000;7.360;2023-04-01T14:50:13;9.00;77.90
39401;DHT22;54391;50.000;7.360;2023-04-01T14:52:49;8.90;79.20
39401;DHT22;54391;50.000;7.360;2023-04-01T14:55:28;8.90;79.30
39401;DHT22;54391;50.000;7.360;2023-04-01T14:58:07;8.90;81.80
39401;DHT22;54391;50.000;7.360;2023-04-01T15:00:48;8.90;83.00
39401;DHT22;54391;50.000;7.360;2023-04-01T15:03:22;8.80;84.10
39401;DHT22;54391;50.000;7.360;2023-04-01T15:05:55;8.70;85.60
39401;DHT22;54391;50.000;7.360;2023-04-01T15:08:26;8.70;83.60
39401;DHT22;54391;50.000;7.360;2023-04-01T15:11:33;8.60;86.40
39401;DHT22;54391;50.000;7.360;2023-04-01T15:14:19;8.60;86.60
39401;DHT22;54391;50.000;7.360;2023-04-01T15:17:01;8.60;81.40
39401;DHT22;54391;50.000;7.360;2023-04-01T15:19:41;8.60;84.90
39401;DHT22;54391;50.000;7.360;2023-04-01T15:22:27;8.60;86.50
39401;DHT22;54391;50.000;7.360;2023-04-01T15:25:18;8.70;87.60
39401;DHT22;54391;50.000;7.360;2023-04-01T15:27:53;8.60;84.30
39401;DHT22;54391;50.000;7.360;2023-04-01T15:30:32;8.60;88.00
39401;DHT22;54391;50.000;7.360;2023-04-01T15:33:16;8.60;88.40
39401;DHT22;54391;50.000;7.360;2023-04-01T15:35:50;8.50;88.50
39401;DHT22;54391;50.000;7.360;2023-04-01T15:38:29;8.50;89.50
39401;DHT22;54391;50.000;7.360;2023-04-01T15:41:04;8.50;85.70
39401;DHT22;54391;50.000;7.360;2023-04-01T15:43:40;8.50;89.00
39401;DHT22;54391;50.000;7.360;2023-04-01T15:46:30;8.50;88.50
39401;DHT22;54391;50.000;7.360;2023-04-01T15:49:15;8.50;91.30
39401;DHT22;54391;50.000;7.360;2023-04-01T15:51:52;8.50;92.00
39401;DHT22;54391;50.000;7.360;2023-04-01T15:54:54;8.50;92.10
39401;DHT22;54391;50.000;7.360;2023-04-01T15:57:31;8.40;92.10
39401;DHT22;54391;50.000;7.360;2023-04-01T16:00:23;8.40;91.80
39401;DHT22;54391;50.000;7.360;2023-04-01T16:09:06;8.30;94.10
39401;DHT22;54391;50.000;7.360;2023-04-01T16:11:46;8.30;95.50
39401;DHT22;54391;50.000;7.360;2023-04-01T16:14:31;8.30;97.90
39401;DHT22;54391;50.000;7.360;2023-04-01T16:17:16;8.30;97.80
39401;DHT22;54391;50.000;7.360;2023-04-01T16:19:53;8.30;98.40
39401;DHT22;54391;50.000;7.360;2023-04-01T16:22:23;8.40;99.00
39401;DHT22;54391;50.000;7.360;2023-04-01T16:24:55;8.30;99.80
39401;DHT22;54391;50.000;7.360;2023-04-01T16:27:35;8.30;99.90
39401;DHT22;54391;50.000;7.360;2023-04-01T16:30:25;8.20;99.90
39401;DHT22;54391;50.000;7.360;2023-04-01T16:32:57;8.20;99.90
39401;DHT22;54391;50.000;7.360;2023-04-01T16:35:35;8.20;99.90
39401;DHT22;54391;50.000;7.360;2023-04-01T16:38:09;8.30;99.90
39401;DHT22;54391;50.000;7.360;2023-04-01T16:40:44;8.30;99.40
39401;DHT22;54391;50.000;7.360;2023-04-01T16:43:20;8.30;99.70
39401;DHT22;54391;50.000;7.360;2023-04-01T16:46:20;8.20;99.40
39401;DHT22;54391;50.000;7.360;2023-04-01T16:48:59;8.20;99.90
39401;DHT22;54391;50.000;7.360;2023-04-01T16:51:40;8.20;99.90
39401;DHT22;54391;50.000;7.360;2023-04-01T16:54:16;8.20;99.90
39401;DHT22;54391;50.000;7.360;2023-04-01T16:56:49;8.10;99.90
39401;DHT22;54391;50.000;7.360;2023-04-01T16:59:21;8.10;99.90
39401;DHT22;54391;50.000;7.360;2023-04-01T17:01:53;8.20;99.90
39401;DHT22;54391;50.000;7.360;2023-04-01T17:04:30;8.10;99.90
39401;DHT22;54391;50.000;7.360;2023-04-01T17:07:11;8.10;99.90
39401;DHT22;54391;50.000;7.360;2023-04-01T17:10:00;8.10;99.90
39401;DHT22;54391;50.000;7.360;2023-04-01T17:12:34;8.10;99.90
39401;DHT22;54391;50.000;7.360;2023-04-01T17:15:05;8.10;99.90
39401;DHT22;54391;50.000;7.360;2023-04-01T17:17:47;8.10;99.90
39401;DHT22;54391;50.000;7.360;2023-04-01T17:20:30;8.10;99.90
39401;DHT22;54391;50.000;7.360;2023-04-01T17:23:01;8.00;99.90
39401;DHT22;54391;50.000;7.360;2023-04-01T17:25:51;8.00;99.90
39401;DHT22;54391;50.000;7.360;2023-04-01T17:28:29;8.10;99.90
39401;DHT22;54391;50.000;7.360;2023-04-01T17:31:05;8.00;99.90
39401;DHT22;54391;50.000;7.360;2023-04-01T17:33:57;8.00;99.90
39401;DHT22;54391;50.000;7.360;2023-04-01T17:36:36;8.10;99.90
39401;DHT22;54391;50.000;7.360;2023-04-01T17:39:30;7.90;99.90
39401;DHT22;54391;50.000;7.360;2023-04-01T17:42:06;8.00;99.90
39401;DHT22;54391;50.000;7.360;2023-04-01T17:44:47;7.90;99.90
39401;DHT22;54391;50.000;7.360;2023-04-01T17:47:34;7.70;99.90
39401;DHT22;54391;50.000;7.360;2023-04-01T17:50:18;7.90;99.90
39401;DHT22;54391;50.000;7.360;2023-04-01T17:55:53;7.90;99.90
39401;DHT22;54391;50.000;7.360;2023-04-01T17:58:29;7.90;99.90
39401;DHT22;54391;50.000;7.360;2023-04-01T18:01:15;7.90;99.90
39401;DHT22;54391;50.000;7.360;2023-04-01T18:03:58;7.80;99.90
39401;DHT22;54391;50.000;7.360;2023-04-01T18:06:34;7.90;99.90
39401;DHT22;54391;50.000;7.360;2023-04-01T18:09:12;7.90;99.90
39401;DHT22;54391;50.000;7.360;2023-04-01T18:11:54;7.90;99.90
39401;DHT22;54391;50.000;7.360;2023-04-01T18:14:44;7.90;99.90
39401;DHT22;54391;50.000;7.360;2023-04-01T18:17:23;7.90;99.90
39401;DHT22;54391;50.000;7.360;2023-04-01T18:20:07;7.90;99.90
39401;DHT22;54391;50.000;7.360;2023-04-01T18:22:42;7.80;99.90
39401;DHT22;54391;50.000;7.360;2023-04-01T18:25:19;7.80;99.90
39401;DHT22;54391;50.000;7.360;2023-04-01T18:27:52;7.90;99.90
39401;DHT22;54391;50.000;7.360;2023-04-01T18:30:26;7.80;99.90
39401;DHT22;54391;50.000;7.360;2023-04-01T18:32:59;7.80;99.90
39401;DHT22;54391;50.000;7.360;2023-04-01T18:35:38;7.80;99.90
39401;DHT22;54391;50.000;7.360;2023-04-01T18:38:15;7.80;99.90
39401;DHT22;54391;50.000;7.360;2023-04-01T18:40:48;7.80;99.90
39401;DHT22;54391;50.000;7.360;2023-04-01T18:43:22;7.80;99.90
39401;DHT22;54391;50.000;7.360;2023-04-01T18:46:08;7.80;99.90
39401;DHT22;54391;50.000;7.360;2023-04-01T18:48:49;7.80;99.90
39401;DHT22;54391;50.000;7.360;2023-04-01T18:51:23;7.80;99.90
39401;DHT22;54391;50.000;7.360;2023-04-01T18:53:57;7.80;99.90
39401;DHT22;54391;50.000;7.360;2023-04-01T18:56:29;7.80;99.90
39401;DHT22;54391;50.000;7.360;2023-04-01T18:59:03;7.70;99.90
39401;DHT22;54391;50.000;7.360;2023-04-01T19:01:38;7.70;99.90
39401;DHT22;54391;50.000;7.360;2023-04-01T19:04:16;7.70;99.90
39401;DHT22;54391;50.000;7.360;2023-04-01T19:06:50;7.70;99.90
39401;DHT22;54391;50.000;7.360;2023-04-01T19:09:25;7.70;99.90
39401;DHT22;54391;50.000;7.360;2023-04-01T19:12:09;7.60;99.90
39401;DHT22;54391;50.000;7.360;2023-04-01T19:14:56;7.60;99.90